createdAt,value
2019-03-06T00:00:04.233Z,1017.52
2019-03-06T00:10:03.113Z,1017.60
2019-03-06T00:20:03.572Z,1017.50
2019-03-06T00:30:03.997Z,1017.38
2019-03-06T00:40:03.668Z,1017.27
2019-03-06T00:50:03.858Z,1017.24
2019-03-06T01:00:04.522Z,1017.10
2019-03-06T01:10:03.794Z,1016.99
2019-03-06T01:20:02.844Z,1016.88
2019-03-06T01:30:04.428Z,1016.86
2019-03-06T01:40:02.784Z,1016.73
2019-03-06T01:50:03.875Z,1016.58
2019-03-06T02:00:04.509Z,1016.67
2019-03-06T02:10:03.259Z,1016.53
2019-03-06T02:20:03.308Z,1016.49
2019-03-06T02:30:04.535Z,1016.40
2019-03-06T02:40:03.349Z,1016.31
2019-03-06T02:50:03.695Z,1016.19
2019-03-06T03:00:03.516Z,1016.20
2019-03-06T03:10:03.258Z,1016.08
2019-03-06T03:20:03.863Z,1016.01
2019-03-06T03:30:04.361Z,1015.92
2019-03-06T03:40:03.218Z,1015.77
2019-03-06T03:50:03.840Z,1015.68
2019-03-06T04:00:04.474Z,1015.58
2019-03-06T04:10:03.308Z,1015.53
2019-03-06T04:20:03.804Z,1015.49
2019-03-06T04:30:04.317Z,1015.55
2019-03-06T04:40:03.891Z,1015.48
2019-03-06T04:50:03.058Z,1015.50
2019-03-06T05:00:03.906Z,1015.50
2019-03-06T05:10:03.519Z,1015.32
2019-03-06T05:20:03.656Z,1015.30
2019-03-06T05:30:03.794Z,1015.31
2019-03-06T05:40:03.393Z,1015.40
2019-03-06T05:50:03.855Z,1015.15
2019-03-06T06:00:03.804Z,1015.17
2019-03-06T06:10:03.202Z,1015.10
2019-03-06T06:20:03.391Z,1015.02
2019-03-06T06:30:04.548Z,1014.67
2019-03-06T06:40:03.280Z,1014.53
2019-03-06T06:50:03.493Z,1014.39
2019-03-06T07:00:04.509Z,1014.29
2019-03-06T07:10:03.583Z,1014.37
2019-03-06T07:20:03.325Z,1014.14
2019-03-06T07:30:04.237Z,1014.21
2019-03-06T07:40:03.510Z,1014.12
2019-03-06T07:50:03.606Z,1013.97
2019-03-06T08:00:04.468Z,1013.98
2019-03-06T08:10:02.988Z,1013.94
2019-03-06T08:20:03.443Z,1013.73
2019-03-06T08:30:04.003Z,1013.66
2019-03-06T08:40:03.174Z,1013.59
2019-03-06T08:50:03.499Z,1013.34
2019-03-06T09:00:04.192Z,1013.19
2019-03-06T09:10:03.329Z,1013.21
2019-03-06T09:20:03.475Z,1013.10
2019-03-06T09:30:03.995Z,1012.97
2019-03-06T09:40:03.587Z,1012.66
2019-03-06T09:50:02.972Z,1012.44
2019-03-06T10:00:03.602Z,1012.36
2019-03-06T10:10:03.914Z,1012.29
2019-03-06T10:20:03.176Z,1012.32
2019-03-06T10:30:07.130Z,1012.15
2019-03-06T10:40:03.298Z,1012.02
2019-03-06T10:50:03.572Z,1011.72
2019-03-06T11:00:04.619Z,1011.69
2019-03-06T11:10:03.250Z,1011.62
2019-03-06T11:20:03.587Z,1011.57
2019-03-06T11:30:04.076Z,1011.32
2019-03-06T11:40:03.597Z,1011.08
2019-03-06T11:50:04.492Z,1010.94
2019-03-06T12:00:04.385Z,1010.84
2019-03-06T12:10:03.368Z,1010.64
2019-03-06T12:20:09.055Z,1010.50
2019-03-06T12:30:04.656Z,1010.42
2019-03-06T12:40:14.619Z,1010.20
2019-03-06T12:50:07.319Z,1009.94
2019-03-06T13:00:04.192Z,1009.75
2019-03-06T13:10:03.978Z,1009.55
2019-03-06T13:20:03.834Z,1009.26
2019-03-06T13:30:04.267Z,1009.14
2019-03-06T13:40:04.197Z,1008.90
2019-03-06T13:50:04.013Z,1008.69
2019-03-06T14:00:04.576Z,1008.50
2019-03-06T14:10:02.792Z,1008.32
2019-03-06T14:20:03.544Z,1008.23
2019-03-06T14:30:04.073Z,1008.09
2019-03-06T14:40:11.252Z,1007.90
2019-03-06T14:50:02.962Z,1007.78
2019-03-06T15:00:04.036Z,1007.71
2019-03-06T15:10:04.220Z,1007.67
2019-03-06T15:11:02.848Z,1007.68
2019-03-06T15:20:03.807Z,1007.55
2019-03-06T15:30:03.980Z,1007.41
2019-03-06T15:40:03.374Z,1007.16
2019-03-06T15:50:03.323Z,1007.00
2019-03-06T16:00:04.183Z,1006.95
2019-03-06T16:10:03.842Z,1006.66
2019-03-06T16:20:03.078Z,1006.70
2019-03-06T16:30:05.098Z,1006.60
2019-03-06T16:40:03.330Z,1006.56
2019-03-06T16:50:03.688Z,1006.55
2019-03-06T17:00:03.824Z,1006.47
2019-03-06T17:10:03.835Z,1006.52
2019-03-06T17:20:03.577Z,1006.50
2019-03-06T17:30:03.899Z,1006.52
2019-03-06T17:40:03.870Z,1006.51
2019-03-06T17:50:03.271Z,1006.54
2019-03-06T18:00:04.416Z,1006.58
2019-03-06T18:10:02.798Z,1006.49
2019-03-06T18:20:03.398Z,1006.46
2019-03-06T18:30:04.784Z,1006.31
2019-03-06T18:40:03.250Z,1006.18
2019-03-06T18:50:03.030Z,1005.97
2019-03-06T19:00:05.325Z,1005.96
2019-03-06T19:10:03.128Z,1005.76
2019-03-06T19:20:03.392Z,1005.79
2019-03-06T19:30:04.254Z,1005.68
2019-03-06T19:40:03.841Z,1005.54
2019-03-06T19:50:03.512Z,1005.29
2019-03-06T20:00:03.843Z,1005.02
2019-03-06T20:10:05.546Z,1005.16
2019-03-06T20:20:05.200Z,1005.14
2019-03-06T20:30:04.367Z,1005.21
2019-03-06T20:40:04.325Z,1004.96
2019-03-06T20:50:03.046Z,1004.82
2019-03-06T21:00:09.948Z,1004.73
2019-03-06T21:10:03.587Z,1004.64
2019-03-06T21:20:03.176Z,1004.56
2019-03-06T21:30:03.546Z,1004.54
2019-03-06T21:40:03.288Z,1004.61
2019-03-06T21:50:03.732Z,1004.65
2019-03-06T22:00:03.956Z,1004.61
2019-03-06T22:10:03.825Z,1004.59
2019-03-06T22:20:04.771Z,1004.33
2019-03-06T22:30:04.294Z,1004.32
2019-03-06T22:40:03.973Z,1004.22
2019-03-06T22:50:04.249Z,1004.17
2019-03-06T23:00:03.724Z,1003.91
2019-03-06T23:10:03.539Z,1003.61
2019-03-06T23:20:04.214Z,1003.47
2019-03-06T23:30:03.918Z,1003.29
2019-03-06T23:40:03.346Z,1003.32
2019-03-06T23:50:03.925Z,1003.33
